EGSS/STN METAR and TAF weather

Enter ICAO airport designator
Station Type Date Time Source
EGSS METAR 2019/06/19 03:20 UTC NOAA

EGSS 190320Z VRB03KT 6000 NSC 12/11 Q1008


Station Type Date Time Source
EGSS Decoded METAR 2019/06/19 03:20 UTC NOAA

Stansted Airport, United Kingdom (EGSS) 51-53N 000-14E 0M
Jun 18, 2019 - 11:20 PM EDT / 2019.06.19 0320 UTC
Wind: Variable at 3 MPH (3 KT):0
Visibility: 3 mile(s):0
Temperature: 53 F (12 C)
Dew Point: 51 F (11 C)
Relative Humidity: 93%
Pressure (altimeter): 29.77 in. Hg (1008 hPa)
ob: EGSS 190320Z VRB03KT 6000 NSC 12/11 Q1008
cycle: 3

Station Type Date Time Source
EGSS TAF 2019/06/19 00:40 UTC NOAA

TAF
AMD EGSS 190033Z 1900/2006 05004KT 6000 FEW003
TEMPO 1900/1907 0300 FG OVC001 PROB30
TEMPO 1903/1910 +SHRA TSRA
BECMG 1907/1910 9999 NSW BKN005
BECMG 1910/1912 BKN010
TEMPO 1910/1917 7000 SHRA
BECMG 1912/1915 30010KT SCT020
BECMG 1915/1918 24009KT PROB30
TEMPO 2000/2006 BKN012

Example: see airport list